sensor_id;sensor_type;location;lat;lon;timestamp;P1;durP1;ratioP1;P2;durP2;ratioP2
40074;SDS011;26529;51.530;11.754;2022-12-13T00:00:37;6.13;;;4.65;;
40074;SDS011;26529;51.530;11.754;2022-12-13T00:03:03;5.72;;;4.10;;
40074;SDS011;26529;51.530;11.754;2022-12-13T00:05:28;5.10;;;3.75;;
40074;SDS011;26529;51.530;11.754;2022-12-13T00:07:53;4.68;;;3.80;;
40074;SDS011;26529;51.530;11.754;2022-12-13T00:10:19;5.03;;;3.50;;
40074;SDS011;26529;51.530;11.754;2022-12-13T00:12:45;5.88;;;3.75;;
40074;SDS011;26529;51.530;11.754;2022-12-13T00:15:10;5.32;;;3.47;;
40074;SDS011;26529;51.530;11.754;2022-12-13T00:17:36;6.70;;;4.03;;
40074;SDS011;26529;51.530;11.754;2022-12-13T00:20:02;4.47;;;3.38;;
40074;SDS011;26529;51.530;11.754;2022-12-13T00:22:28;5.57;;;4.50;;
40074;SDS011;26529;51.530;11.754;2022-12-13T00:24:54;5.50;;;4.15;;
40074;SDS011;26529;51.530;11.754;2022-12-13T00:27:21;7.32;;;3.95;;
40074;SDS011;26529;51.530;11.754;2022-12-13T00:29:47;4.25;;;3.33;;
40074;SDS011;26529;51.530;11.754;2022-12-13T00:32:12;5.53;;;4.30;;
40074;SDS011;26529;51.530;11.754;2022-12-13T00:34:38;5.63;;;3.83;;
40074;SDS011;26529;51.530;11.754;2022-12-13T00:37:03;10.65;;;4.03;;
40074;SDS011;26529;51.530;11.754;2022-12-13T00:39:29;5.68;;;4.00;;
40074;SDS011;26529;51.530;11.754;2022-12-13T00:41:54;4.35;;;3.25;;
40074;SDS011;26529;51.530;11.754;2022-12-13T00:44:20;4.53;;;3.58;;
40074;SDS011;26529;51.530;11.754;2022-12-13T00:46:46;4.53;;;3.72;;
40074;SDS011;26529;51.530;11.754;2022-12-13T00:49:12;5.43;;;3.78;;
40074;SDS011;26529;51.530;11.754;2022-12-13T00:51:37;4.55;;;3.40;;
40074;SDS011;26529;51.530;11.754;2022-12-13T00:54:04;4.82;;;3.67;;
40074;SDS011;26529;51.530;11.754;2022-12-13T00:56:31;5.13;;;3.95;;
40074;SDS011;26529;51.530;11.754;2022-12-13T00:58:57;4.53;;;3.47;;
40074;SDS011;26529;51.530;11.754;2022-12-13T01:01:24;4.03;;;3.28;;
40074;SDS011;26529;51.530;11.754;2022-12-13T01:03:54;5.15;;;3.50;;
40074;SDS011;26529;51.530;11.754;2022-12-13T01:06:30;5.00;;;3.83;;
40074;SDS011;26529;51.530;11.754;2022-12-13T01:09:00;4.50;;;3.83;;
40074;SDS011;26529;51.530;11.754;2022-12-13T01:11:26;4.35;;;3.47;;
40074;SDS011;26529;51.530;11.754;2022-12-13T01:13:51;4.88;;;3.67;;
40074;SDS011;26529;51.530;11.754;2022-12-13T01:16:17;5.85;;;3.45;;
40074;SDS011;26529;51.530;11.754;2022-12-13T01:18:42;5.25;;;3.80;;
40074;SDS011;26529;51.530;11.754;2022-12-13T01:23:41;5.07;;;3.40;;
40074;SDS011;26529;51.530;11.754;2022-12-13T01:26:09;4.57;;;3.60;;
40074;SDS011;26529;51.530;11.754;2022-12-13T01:28:36;4.20;;;3.03;;
40074;SDS011;26529;51.530;11.754;2022-12-13T01:31:03;4.63;;;3.58;;
40074;SDS011;26529;51.530;11.754;2022-12-13T01:33:34;4.63;;;3.60;;
40074;SDS011;26529;51.530;11.754;2022-12-13T01:36:00;5.03;;;3.85;;
40074;SDS011;26529;51.530;11.754;2022-12-13T01:38:27;4.05;;;3.47;;
40074;SDS011;26529;51.530;11.754;2022-12-13T01:40:53;5.35;;;3.50;;
40074;SDS011;26529;51.530;11.754;2022-12-13T01:43:25;4.82;;;3.80;;
40074;SDS011;26529;51.530;11.754;2022-12-13T01:46:15;4.20;;;3.42;;
40074;SDS011;26529;51.530;11.754;2022-12-13T01:48:46;4.18;;;3.13;;
40074;SDS011;26529;51.530;11.754;2022-12-13T01:51:13;4.60;;;3.08;;
40074;SDS011;26529;51.530;11.754;2022-12-13T01:53:41;3.58;;;2.75;;
40074;SDS011;26529;51.530;11.754;2022-12-13T01:56:11;3.63;;;3.15;;
40074;SDS011;26529;51.530;11.754;2022-12-13T01:58:40;4.80;;;3.30;;
40074;SDS011;26529;51.530;11.754;2022-12-13T02:01:07;4.53;;;3.40;;
40074;SDS011;26529;51.530;11.754;2022-12-13T02:03:33;3.70;;;3.22;;
40074;SDS011;26529;51.530;11.754;2022-12-13T02:06:00;4.15;;;3.00;;
40074;SDS011;26529;51.530;11.754;2022-12-13T02:08:31;5.68;;;3.65;;
40074;SDS011;26529;51.530;11.754;2022-12-13T02:10:59;5.03;;;3.42;;
40074;SDS011;26529;51.530;11.754;2022-12-13T02:13:25;3.63;;;2.78;;
40074;SDS011;26529;51.530;11.754;2022-12-13T02:18:51;4.22;;;3.40;;
40074;SDS011;26529;51.530;11.754;2022-12-13T02:24:24;5.68;;;3.45;;
40074;SDS011;26529;51.530;11.754;2022-12-13T02:26:58;6.13;;;2.97;;
40074;SDS011;26529;51.530;11.754;2022-12-13T02:35:08;3.72;;;3.10;;
40074;SDS011;26529;51.530;11.754;2022-12-13T02:37:50;4.72;;;3.35;;
40074;SDS011;26529;51.530;11.754;2022-12-13T02:43:28;5.53;;;3.83;;
40074;SDS011;26529;51.530;11.754;2022-12-13T02:46:19;3.40;;;2.90;;
40074;SDS011;26529;51.530;11.754;2022-12-13T02:48:47;4.20;;;2.95;;
40074;SDS011;26529;51.530;11.754;2022-12-13T02:51:15;3.90;;;3.20;;
40074;SDS011;26529;51.530;11.754;2022-12-13T02:53:42;3.60;;;2.97;;
40074;SDS011;26529;51.530;11.754;2022-12-13T02:56:09;3.40;;;2.97;;
40074;SDS011;26529;51.530;11.754;2022-12-13T02:58:37;3.47;;;2.88;;
40074;SDS011;26529;51.530;11.754;2022-12-13T03:04:06;4.03;;;3.15;;
40074;SDS011;26529;51.530;11.754;2022-12-13T03:07:16;3.53;;;2.90;;
40074;SDS011;26529;51.530;11.754;2022-12-13T03:09:54;3.05;;;2.53;;
40074;SDS011;26529;51.530;11.754;2022-12-13T03:12:33;3.40;;;3.00;;
40074;SDS011;26529;51.530;11.754;2022-12-13T03:15:37;3.38;;;3.08;;
40074;SDS011;26529;51.530;11.754;2022-12-13T03:18:11;3.38;;;3.00;;
40074;SDS011;26529;51.530;11.754;2022-12-13T03:20:51;4.10;;;3.10;;
40074;SDS011;26529;51.530;11.754;2022-12-13T03:23:24;4.80;;;3.80;;
40074;SDS011;26529;51.530;11.754;2022-12-13T03:25:52;3.33;;;2.78;;
40074;SDS011;26529;51.530;11.754;2022-12-13T03:28:20;4.97;;;3.40;;
40074;SDS011;26529;51.530;11.754;2022-12-13T03:30:47;4.18;;;3.35;;
40074;SDS011;26529;51.530;11.754;2022-12-13T03:33:12;3.90;;;3.15;;
40074;SDS011;26529;51.530;11.754;2022-12-13T03:35:38;3.88;;;2.72;;
40074;SDS011;26529;51.530;11.754;2022-12-13T03:38:05;3.40;;;2.95;;
40074;SDS011;26529;51.530;11.754;2022-12-13T03:40:31;4.55;;;3.30;;
40074;SDS011;26529;51.530;11.754;2022-12-13T03:42:58;4.07;;;3.20;;
40074;SDS011;26529;51.530;11.754;2022-12-13T03:45:24;4.10;;;3.35;;
40074;SDS011;26529;51.530;11.754;2022-12-13T03:47:49;4.28;;;3.40;;
40074;SDS011;26529;51.530;11.754;2022-12-13T03:50:15;4.10;;;3.13;;
40074;SDS011;26529;51.530;11.754;2022-12-13T03:52:40;4.07;;;3.40;;
40074;SDS011;26529;51.530;11.754;2022-12-13T03:55:06;4.07;;;2.92;;
40074;SDS011;26529;51.530;11.754;2022-12-13T03:57:31;4.47;;;3.47;;
40074;SDS011;26529;51.530;11.754;2022-12-13T03:59:57;4.15;;;2.90;;
40074;SDS011;26529;51.530;11.754;2022-12-13T04:02:23;4.80;;;3.20;;
40074;SDS011;26529;51.530;11.754;2022-12-13T04:04:48;4.25;;;3.33;;
40074;SDS011;26529;51.530;11.754;2022-12-13T04:07:13;3.67;;;2.70;;
40074;SDS011;26529;51.530;11.754;2022-12-13T04:09:39;4.68;;;2.72;;
40074;SDS011;26529;51.530;11.754;2022-12-13T04:12:04;3.35;;;2.65;;
40074;SDS011;26529;51.530;11.754;2022-12-13T04:14:48;3.03;;;2.63;;
40074;SDS011;26529;51.530;11.754;2022-12-13T04:17:14;4.35;;;2.90;;
40074;SDS011;26529;51.530;11.754;2022-12-13T04:19:39;3.00;;;2.40;;
40074;SDS011;26529;51.530;11.754;2022-12-13T04:22:05;3.83;;;2.88;;
40074;SDS011;26529;51.530;11.754;2022-12-13T04:24:30;2.90;;;2.45;;
40074;SDS011;26529;51.530;11.754;2022-12-13T04:26:56;3.30;;;2.70;;
40074;SDS011;26529;51.530;11.754;2022-12-13T04:29:21;3.65;;;2.97;;
40074;SDS011;26529;51.530;11.754;2022-12-13T04:31:47;3.15;;;2.30;;
40074;SDS011;26529;51.530;11.754;2022-12-13T04:34:12;4.60;;;3.05;;
40074;SDS011;26529;51.530;11.754;2022-12-13T04:36:38;2.88;;;2.58;;
40074;SDS011;26529;51.530;11.754;2022-12-13T04:39:04;4.45;;;2.80;;
40074;SDS011;26529;51.530;11.754;2022-12-13T04:41:34;3.58;;;2.85;;
40074;SDS011;26529;51.530;11.754;2022-12-13T04:44:01;3.38;;;2.65;;
40074;SDS011;26529;51.530;11.754;2022-12-13T04:46:27;3.38;;;2.63;;
40074;SDS011;26529;51.530;11.754;2022-12-13T04:48:52;3.30;;;2.80;;
40074;SDS011;26529;51.530;11.754;2022-12-13T04:51:18;5.25;;;2.90;;
40074;SDS011;26529;51.530;11.754;2022-12-13T04:53:43;4.60;;;3.22;;
40074;SDS011;26529;51.530;11.754;2022-12-13T04:56:09;3.33;;;2.83;;
40074;SDS011;26529;51.530;11.754;2022-12-13T04:58:35;4.18;;;3.13;;
40074;SDS011;26529;51.530;11.754;2022-12-13T05:01:01;3.20;;;2.50;;
40074;SDS011;26529;51.530;11.754;2022-12-13T05:03:26;3.38;;;2.85;;
40074;SDS011;26529;51.530;11.754;2022-12-13T05:05:52;3.97;;;2.63;;
40074;SDS011;26529;51.530;11.754;2022-12-13T05:08:18;4.28;;;3.15;;
40074;SDS011;26529;51.530;11.754;2022-12-13T05:10:44;3.17;;;2.58;;
40074;SDS011;26529;51.530;11.754;2022-12-13T05:13:09;2.95;;;2.55;;
40074;SDS011;26529;51.530;11.754;2022-12-13T05:15:35;3.70;;;2.90;;
40074;SDS011;26529;51.530;11.754;2022-12-13T05:18:04;3.92;;;3.00;;
40074;SDS011;26529;51.530;11.754;2022-12-13T05:20:30;3.25;;;2.70;;
40074;SDS011;26529;51.530;11.754;2022-12-13T05:22:58;4.05;;;2.67;;
40074;SDS011;26529;51.530;11.754;2022-12-13T05:25:24;2.60;;;2.38;;
40074;SDS011;26529;51.530;11.754;2022-12-13T05:27:50;2.97;;;2.63;;
40074;SDS011;26529;51.530;11.754;2022-12-13T05:30:16;5.15;;;3.10;;
40074;SDS011;26529;51.530;11.754;2022-12-13T05:32:41;3.13;;;2.60;;
40074;SDS011;26529;51.530;11.754;2022-12-13T05:35:07;2.90;;;2.60;;
40074;SDS011;26529;51.530;11.754;2022-12-13T05:37:33;3.00;;;2.42;;
40074;SDS011;26529;51.530;11.754;2022-12-13T05:39:58;3.28;;;2.42;;
40074;SDS011;26529;51.530;11.754;2022-12-13T05:42:24;2.78;;;2.40;;
40074;SDS011;26529;51.530;11.754;2022-12-13T05:44:53;3.45;;;2.80;;
40074;SDS011;26529;51.530;11.754;2022-12-13T05:47:18;3.17;;;2.88;;
40074;SDS011;26529;51.530;11.754;2022-12-13T05:49:44;4.05;;;2.88;;
40074;SDS011;26529;51.530;11.754;2022-12-13T05:52:16;3.08;;;2.22;;
40074;SDS011;26529;51.530;11.754;2022-12-13T05:54:43;3.45;;;2.60;;
40074;SDS011;26529;51.530;11.754;2022-12-13T05:57:09;3.17;;;2.65;;
40074;SDS011;26529;51.530;11.754;2022-12-13T05:59:35;3.75;;;2.70;;
40074;SDS011;26529;51.530;11.754;2022-12-13T06:02:00;3.33;;;2.55;;
40074;SDS011;26529;51.530;11.754;2022-12-13T06:04:26;4.15;;;2.80;;
40074;SDS011;26529;51.530;11.754;2022-12-13T06:06:51;3.10;;;2.70;;
40074;SDS011;26529;51.530;11.754;2022-12-13T06:09:17;3.28;;;2.40;;
40074;SDS011;26529;51.530;11.754;2022-12-13T06:11:44;3.25;;;2.67;;
40074;SDS011;26529;51.530;11.754;2022-12-13T06:14:09;3.00;;;2.60;;
40074;SDS011;26529;51.530;11.754;2022-12-13T06:16:35;3.80;;;2.80;;
40074;SDS011;26529;51.530;11.754;2022-12-13T06:19:00;3.30;;;2.63;;
40074;SDS011;26529;51.530;11.754;2022-12-13T06:21:26;2.60;;;2.25;;
40074;SDS011;26529;51.530;11.754;2022-12-13T06:23:51;5.55;;;2.70;;
40074;SDS011;26529;51.530;11.754;2022-12-13T06:26:17;3.45;;;2.88;;
40074;SDS011;26529;51.530;11.754;2022-12-13T06:28:42;3.80;;;2.90;;
40074;SDS011;26529;51.530;11.754;2022-12-13T06:31:08;3.28;;;2.58;;
40074;SDS011;26529;51.530;11.754;2022-12-13T06:33:34;3.47;;;2.40;;
40074;SDS011;26529;51.530;11.754;2022-12-13T06:36:01;2.58;;;2.38;;
40074;SDS011;26529;51.530;11.754;2022-12-13T06:38:28;3.30;;;2.50;;
40074;SDS011;26529;51.530;11.754;2022-12-13T06:40:53;3.78;;;2.58;;
40074;SDS011;26529;51.530;11.754;2022-12-13T06:43:19;3.78;;;2.60;;
40074;SDS011;26529;51.530;11.754;2022-12-13T06:45:45;2.50;;;2.30;;
40074;SDS011;26529;51.530;11.754;2022-12-13T06:48:11;3.83;;;2.78;;
40074;SDS011;26529;51.530;11.754;2022-12-13T06:50:36;6.25;;;3.22;;
40074;SDS011;26529;51.530;11.754;2022-12-13T06:53:02;3.42;;;2.85;;
40074;SDS011;26529;51.530;11.754;2022-12-13T06:55:28;3.10;;;2.53;;
40074;SDS011;26529;51.530;11.754;2022-12-13T06:57:56;4.97;;;2.53;;
40074;SDS011;26529;51.530;11.754;2022-12-13T07:00:22;3.33;;;2.40;;
40074;SDS011;26529;51.530;11.754;2022-12-13T07:02:52;3.95;;;3.10;;
40074;SDS011;26529;51.530;11.754;2022-12-13T07:05:18;3.05;;;2.60;;
40074;SDS011;26529;51.530;11.754;2022-12-13T07:07:44;3.47;;;2.70;;
40074;SDS011;26529;51.530;11.754;2022-12-13T07:10:09;3.78;;;3.03;;
40074;SDS011;26529;51.530;11.754;2022-12-13T07:12:35;4.43;;;2.97;;
40074;SDS011;26529;51.530;11.754;2022-12-13T07:15:01;3.42;;;2.80;;
40074;SDS011;26529;51.530;11.754;2022-12-13T07:17:26;3.10;;;2.53;;
40074;SDS011;26529;51.530;11.754;2022-12-13T07:19:52;3.65;;;2.70;;
40074;SDS011;26529;51.530;11.754;2022-12-13T07:22:17;3.03;;;2.70;;
40074;SDS011;26529;51.530;11.754;2022-12-13T07:24:43;4.10;;;3.17;;
40074;SDS011;26529;51.530;11.754;2022-12-13T07:27:08;2.85;;;2.55;;
40074;SDS011;26529;51.530;11.754;2022-12-13T07:29:34;4.03;;;2.72;;
40074;SDS011;26529;51.530;11.754;2022-12-13T07:31:59;3.42;;;2.72;;
40074;SDS011;26529;51.530;11.754;2022-12-13T07:34:25;3.28;;;2.70;;
40074;SDS011;26529;51.530;11.754;2022-12-13T07:36:50;4.00;;;2.85;;
40074;SDS011;26529;51.530;11.754;2022-12-13T07:39:16;3.58;;;2.90;;
40074;SDS011;26529;51.530;11.754;2022-12-13T07:41:41;3.22;;;2.40;;
40074;SDS011;26529;51.530;11.754;2022-12-13T07:44:07;3.83;;;2.80;;
40074;SDS011;26529;51.530;11.754;2022-12-13T07:46:32;3.47;;;2.65;;
40074;SDS011;26529;51.530;11.754;2022-12-13T07:48:59;2.90;;;2.60;;
40074;SDS011;26529;51.530;11.754;2022-12-13T07:51:25;2.60;;;2.25;;
40074;SDS011;26529;51.530;11.754;2022-12-13T07:53:51;3.80;;;2.97;;
40074;SDS011;26529;51.530;11.754;2022-12-13T07:56:17;3.72;;;2.75;;
40074;SDS011;26529;51.530;11.754;2022-12-13T07:58:42;3.05;;;2.38;;
40074;SDS011;26529;51.530;11.754;2022-12-13T08:01:09;2.83;;;2.53;;
40074;SDS011;26529;51.530;11.754;2022-12-13T08:03:36;4.10;;;2.60;;
40074;SDS011;26529;51.530;11.754;2022-12-13T08:06:02;3.28;;;2.70;;
40074;SDS011;26529;51.530;11.754;2022-12-13T08:08:30;4.45;;;2.95;;
40074;SDS011;26529;51.530;11.754;2022-12-13T08:10:59;3.90;;;2.72;;
40074;SDS011;26529;51.530;11.754;2022-12-13T08:13:26;4.07;;;3.05;;
40074;SDS011;26529;51.530;11.754;2022-12-13T08:15:56;3.00;;;2.33;;
40074;SDS011;26529;51.530;11.754;2022-12-13T08:18:23;2.80;;;2.38;;
40074;SDS011;26529;51.530;11.754;2022-12-13T08:20:48;3.85;;;2.83;;
40074;SDS011;26529;51.530;11.754;2022-12-13T08:23:14;8.60;;;2.70;;
40074;SDS011;26529;51.530;11.754;2022-12-13T08:25:39;5.20;;;2.90;;
40074;SDS011;26529;51.530;11.754;2022-12-13T08:28:05;7.00;;;3.13;;
40074;SDS011;26529;51.530;11.754;2022-12-13T08:30:31;5.80;;;3.42;;
40074;SDS011;26529;51.530;11.754;2022-12-13T08:32:56;4.25;;;2.88;;
40074;SDS011;26529;51.530;11.754;2022-12-13T08:35:22;4.20;;;3.10;;
40074;SDS011;26529;51.530;11.754;2022-12-13T08:37:47;4.05;;;2.72;;
40074;SDS011;26529;51.530;11.754;2022-12-13T08:40:13;4.18;;;2.60;;
40074;SDS011;26529;51.530;11.754;2022-12-13T08:42:39;3.58;;;2.72;;
40074;SDS011;26529;51.530;11.754;2022-12-13T08:45:04;4.13;;;3.30;;
40074;SDS011;26529;51.530;11.754;2022-12-13T08:47:30;5.78;;;3.17;;
40074;SDS011;26529;51.530;11.754;2022-12-13T08:49:56;3.63;;;2.92;;
40074;SDS011;26529;51.530;11.754;2022-12-13T08:52:23;4.55;;;3.22;;
40074;SDS011;26529;51.530;11.754;2022-12-13T08:54:49;4.85;;;2.65;;
40074;SDS011;26529;51.530;11.754;2022-12-13T08:57:15;6.22;;;3.38;;
40074;SDS011;26529;51.530;11.754;2022-12-13T08:59:41;7.93;;;2.78;;
40074;SDS011;26529;51.530;11.754;2022-12-13T09:02:10;4.75;;;2.95;;
40074;SDS011;26529;51.530;11.754;2022-12-13T09:04:37;4.43;;;3.25;;
40074;SDS011;26529;51.530;11.754;2022-12-13T09:07:03;5.30;;;3.28;;
40074;SDS011;26529;51.530;11.754;2022-12-13T09:09:28;4.20;;;3.00;;
40074;SDS011;26529;51.530;11.754;2022-12-13T09:11:54;4.43;;;3.08;;
40074;SDS011;26529;51.530;11.754;2022-12-13T09:14:19;7.25;;;3.35;;
40074;SDS011;26529;51.530;11.754;2022-12-13T09:16:45;3.42;;;2.90;;
40074;SDS011;26529;51.530;11.754;2022-12-13T09:19:11;5.15;;;2.90;;
40074;SDS011;26529;51.530;11.754;2022-12-13T09:21:36;4.63;;;2.97;;
40074;SDS011;26529;51.530;11.754;2022-12-13T09:24:02;4.07;;;3.17;;
40074;SDS011;26529;51.530;11.754;2022-12-13T09:26:28;3.78;;;3.05;;
40074;SDS011;26529;51.530;11.754;2022-12-13T09:28:54;4.95;;;3.20;;
40074;SDS011;26529;51.530;11.754;2022-12-13T09:31:19;5.72;;;4.53;;
40074;SDS011;26529;51.530;11.754;2022-12-13T09:33:45;19.80;;;15.45;;
40074;SDS011;26529;51.530;11.754;2022-12-13T09:36:15;20.20;;;14.57;;
40074;SDS011;26529;51.530;11.754;2022-12-13T09:38:43;15.85;;;12.40;;
40074;SDS011;26529;51.530;11.754;2022-12-13T09:44:12;18.02;;;11.73;;
40074;SDS011;26529;51.530;11.754;2022-12-13T09:46:44;17.27;;;11.10;;
40074;SDS011;26529;51.530;11.754;2022-12-13T09:52:03;13.77;;;8.60;;
40074;SDS011;26529;51.530;11.754;2022-12-13T09:54:30;12.25;;;8.38;;
40074;SDS011;26529;51.530;11.754;2022-12-13T09:56:57;11.55;;;8.55;;
40074;SDS011;26529;51.530;11.754;2022-12-13T09:59:27;11.50;;;8.13;;
40074;SDS011;26529;51.530;11.754;2022-12-13T10:01:55;11.85;;;7.50;;
40074;SDS011;26529;51.530;11.754;2022-12-13T10:04:26;10.23;;;7.53;;
40074;SDS011;26529;51.530;11.754;2022-12-13T10:06:53;9.43;;;7.50;;
40074;SDS011;26529;51.530;11.754;2022-12-13T10:09:20;11.73;;;7.47;;
40074;SDS011;26529;51.530;11.754;2022-12-13T10:11:47;10.85;;;7.45;;
40074;SDS011;26529;51.530;11.754;2022-12-13T10:14:19;8.43;;;6.30;;
40074;SDS011;26529;51.530;11.754;2022-12-13T10:17:04;9.60;;;6.18;;
40074;SDS011;26529;51.530;11.754;2022-12-13T10:19:34;9.80;;;7.18;;
40074;SDS011;26529;51.530;11.754;2022-12-13T10:22:04;8.13;;;6.03;;
40074;SDS011;26529;51.530;11.754;2022-12-13T10:27:17;9.55;;;6.78;;
40074;SDS011;26529;51.530;11.754;2022-12-13T10:32:27;7.78;;;6.25;;
40074;SDS011;26529;51.530;11.754;2022-12-13T10:34:56;9.68;;;5.97;;
40074;SDS011;26529;51.530;11.754;2022-12-13T10:39:47;7.97;;;6.20;;
40074;SDS011;26529;51.530;11.754;2022-12-13T10:42:14;8.27;;;5.88;;
40074;SDS011;26529;51.530;11.754;2022-12-13T10:44:42;7.65;;;5.90;;
40074;SDS011;26529;51.530;11.754;2022-12-13T10:47:23;9.10;;;5.90;;
40074;SDS011;26529;51.530;11.754;2022-12-13T10:49:54;8.45;;;5.60;;
40074;SDS011;26529;51.530;11.754;2022-12-13T10:52:27;9.52;;;6.40;;
40074;SDS011;26529;51.530;11.754;2022-12-13T10:55:02;7.05;;;5.45;;
40074;SDS011;26529;51.530;11.754;2022-12-13T10:57:31;8.55;;;5.80;;
40074;SDS011;26529;51.530;11.754;2022-12-13T10:59:58;6.72;;;5.40;;
40074;SDS011;26529;51.530;11.754;2022-12-13T11:04:54;9.27;;;5.15;;
40074;SDS011;26529;51.530;11.754;2022-12-13T11:10:14;8.57;;;5.20;;
40074;SDS011;26529;51.530;11.754;2022-12-13T11:12:52;8.40;;;5.32;;
40074;SDS011;26529;51.530;11.754;2022-12-13T11:15:29;7.65;;;5.45;;
40074;SDS011;26529;51.530;11.754;2022-12-13T11:17:59;11.48;;;5.22;;
40074;SDS011;26529;51.530;11.754;2022-12-13T11:20:33;9.80;;;5.38;;
40074;SDS011;26529;51.530;11.754;2022-12-13T11:23:13;5.90;;;4.43;;
40074;SDS011;26529;51.530;11.754;2022-12-13T11:25:41;10.82;;;5.28;;
40074;SDS011;26529;51.530;11.754;2022-12-13T11:28:22;11.70;;;6.07;;
40074;SDS011;26529;51.530;11.754;2022-12-13T11:31:10;8.82;;;4.97;;
40074;SDS011;26529;51.530;11.754;2022-12-13T11:33:53;7.75;;;4.80;;
40074;SDS011;26529;51.530;11.754;2022-12-13T11:36:31;10.75;;;5.38;;
40074;SDS011;26529;51.530;11.754;2022-12-13T11:39:20;13.90;;;5.28;;
40074;SDS011;26529;51.530;11.754;2022-12-13T11:50:14;10.73;;;5.40;;
40074;SDS011;26529;51.530;11.754;2022-12-13T11:53:09;7.85;;;4.60;;
40074;SDS011;26529;51.530;11.754;2022-12-13T11:55:41;8.68;;;5.05;;
40074;SDS011;26529;51.530;11.754;2022-12-13T12:03:36;11.15;;;5.13;;
40074;SDS011;26529;51.530;11.754;2022-12-13T12:06:19;11.70;;;5.47;;
40074;SDS011;26529;51.530;11.754;2022-12-13T12:08:52;9.13;;;4.63;;
40074;SDS011;26529;51.530;11.754;2022-12-13T12:11:44;12.07;;;4.63;;
40074;SDS011;26529;51.530;11.754;2022-12-13T12:16:50;11.30;;;4.60;;
40074;SDS011;26529;51.530;11.754;2022-12-13T12:19:22;7.53;;;4.38;;
40074;SDS011;26529;51.530;11.754;2022-12-13T12:38:05;6.43;;;4.35;;
40074;SDS011;26529;51.530;11.754;2022-12-13T12:41:11;6.18;;;4.15;;
40074;SDS011;26529;51.530;11.754;2022-12-13T12:43:42;9.23;;;4.10;;
40074;SDS011;26529;51.530;11.754;2022-12-13T13:02:45;7.43;;;3.80;;
40074;SDS011;26529;51.530;11.754;2022-12-13T13:05:32;6.75;;;3.90;;
40074;SDS011;26529;51.530;11.754;2022-12-13T13:08:24;8.60;;;4.32;;
40074;SDS011;26529;51.530;11.754;2022-12-13T13:10:59;8.57;;;3.75;;
40074;SDS011;26529;51.530;11.754;2022-12-13T13:18:55;7.07;;;4.18;;
40074;SDS011;26529;51.530;11.754;2022-12-13T13:23:48;7.60;;;4.05;;
40074;SDS011;26529;51.530;11.754;2022-12-13T13:26:37;5.05;;;3.75;;
40074;SDS011;26529;51.530;11.754;2022-12-13T13:34:49;6.60;;;3.55;;
40074;SDS011;26529;51.530;11.754;2022-12-13T13:45:28;5.18;;;3.80;;
40074;SDS011;26529;51.530;11.754;2022-12-13T13:47:57;6.47;;;4.00;;
40074;SDS011;26529;51.530;11.754;2022-12-13T13:53:28;4.22;;;3.75;;
40074;SDS011;26529;51.530;11.754;2022-12-13T14:22:00;5.15;;;3.58;;
40074;SDS011;26529;51.530;11.754;2022-12-13T14:30:01;6.60;;;3.30;;
40074;SDS011;26529;51.530;11.754;2022-12-13T14:32:30;4.45;;;3.17;;
40074;SDS011;26529;51.530;11.754;2022-12-13T14:35:00;5.53;;;3.42;;
40074;SDS011;26529;51.530;11.754;2022-12-13T14:37:29;4.10;;;3.38;;
40074;SDS011;26529;51.530;11.754;2022-12-13T14:40:00;5.20;;;3.28;;
40074;SDS011;26529;51.530;11.754;2022-12-13T14:42:27;5.88;;;3.53;;
40074;SDS011;26529;51.530;11.754;2022-12-13T14:47:47;4.95;;;3.70;;
40074;SDS011;26529;51.530;11.754;2022-12-13T14:50:16;6.38;;;4.05;;
40074;SDS011;26529;51.530;11.754;2022-12-13T14:52:42;4.95;;;3.72;;
40074;SDS011;26529;51.530;11.754;2022-12-13T14:55:26;4.80;;;3.40;;
40074;SDS011;26529;51.530;11.754;2022-12-13T14:57:56;4.65;;;3.08;;
40074;SDS011;26529;51.530;11.754;2022-12-13T15:00:28;4.97;;;2.85;;
40074;SDS011;26529;51.530;11.754;2022-12-13T15:03:00;4.88;;;3.13;;
40074;SDS011;26529;51.530;11.754;2022-12-13T15:05:29;4.22;;;2.92;;
40074;SDS011;26529;51.530;11.754;2022-12-13T15:07:58;4.55;;;3.42;;
40074;SDS011;26529;51.530;11.754;2022-12-13T15:10:58;4.78;;;2.47;;
40074;SDS011;26529;51.530;11.754;2022-12-13T15:13:38;5.47;;;3.20;;
40074;SDS011;26529;51.530;11.754;2022-12-13T15:16:13;6.93;;;3.47;;
40074;SDS011;26529;51.530;11.754;2022-12-13T15:19:03;4.47;;;3.38;;
40074;SDS011;26529;51.530;11.754;2022-12-13T15:21:56;4.45;;;3.53;;
40074;SDS011;26529;51.530;11.754;2022-12-13T15:24:25;4.22;;;3.22;;
40074;SDS011;26529;51.530;11.754;2022-12-13T15:27:03;4.25;;;3.05;;
40074;SDS011;26529;51.530;11.754;2022-12-13T15:29:30;5.05;;;3.38;;
40074;SDS011;26529;51.530;11.754;2022-12-13T15:31:59;3.90;;;3.22;;
40074;SDS011;26529;51.530;11.754;2022-12-13T15:36:51;16.95;;;3.50;;
40074;SDS011;26529;51.530;11.754;2022-12-13T15:39:18;5.28;;;3.50;;
40074;SDS011;26529;51.530;11.754;2022-12-13T15:41:44;3.78;;;2.92;;
40074;SDS011;26529;51.530;11.754;2022-12-13T15:44:18;5.30;;;3.92;;
40074;SDS011;26529;51.530;11.754;2022-12-13T15:46:48;5.22;;;3.50;;
40074;SDS011;26529;51.530;11.754;2022-12-13T15:49:26;4.18;;;3.33;;
40074;SDS011;26529;51.530;11.754;2022-12-13T15:51:58;4.47;;;3.13;;
40074;SDS011;26529;51.530;11.754;2022-12-13T15:54:26;3.78;;;3.17;;
40074;SDS011;26529;51.530;11.754;2022-12-13T15:59:31;3.42;;;2.95;;
40074;SDS011;26529;51.530;11.754;2022-12-13T16:01:58;5.88;;;4.22;;
40074;SDS011;26529;51.530;11.754;2022-12-13T16:04:25;4.30;;;3.03;;
40074;SDS011;26529;51.530;11.754;2022-12-13T16:06:53;3.88;;;3.05;;
40074;SDS011;26529;51.530;11.754;2022-12-13T16:09:20;4.25;;;3.45;;
40074;SDS011;26529;51.530;11.754;2022-12-13T16:11:49;4.93;;;3.22;;
40074;SDS011;26529;51.530;11.754;2022-12-13T16:16:56;4.55;;;3.30;;
40074;SDS011;26529;51.530;11.754;2022-12-13T16:19:25;5.13;;;3.60;;
40074;SDS011;26529;51.530;11.754;2022-12-13T16:21:51;6.78;;;3.25;;
40074;SDS011;26529;51.530;11.754;2022-12-13T16:24:16;3.95;;;3.38;;
40074;SDS011;26529;51.530;11.754;2022-12-13T16:26:43;5.82;;;3.22;;
40074;SDS011;26529;51.530;11.754;2022-12-13T16:29:11;5.15;;;3.63;;
40074;SDS011;26529;51.530;11.754;2022-12-13T16:31:38;4.80;;;3.10;;
40074;SDS011;26529;51.530;11.754;2022-12-13T16:34:04;11.43;;;6.85;;
40074;SDS011;26529;51.530;11.754;2022-12-13T16:36:31;57.10;;;30.17;;
40074;SDS011;26529;51.530;11.754;2022-12-13T16:38:57;66.75;;;36.50;;
40074;SDS011;26529;51.530;11.754;2022-12-13T16:41:23;65.57;;;32.25;;
40074;SDS011;26529;51.530;11.754;2022-12-13T16:43:54;57.35;;;31.80;;
40074;SDS011;26529;51.530;11.754;2022-12-13T16:46:22;51.65;;;29.13;;
40074;SDS011;26529;51.530;11.754;2022-12-13T16:48:49;52.28;;;27.20;;
40074;SDS011;26529;51.530;11.754;2022-12-13T16:51:14;50.47;;;27.17;;
40074;SDS011;26529;51.530;11.754;2022-12-13T16:53:40;52.50;;;27.80;;
40074;SDS011;26529;51.530;11.754;2022-12-13T16:56:06;61.45;;;30.70;;
40074;SDS011;26529;51.530;11.754;2022-12-13T16:58:35;51.85;;;28.85;;
40074;SDS011;26529;51.530;11.754;2022-12-13T17:03:34;54.85;;;27.58;;
40074;SDS011;26529;51.530;11.754;2022-12-13T17:06:00;51.10;;;27.88;;
40074;SDS011;26529;51.530;11.754;2022-12-13T17:08:26;47.78;;;25.77;;
40074;SDS011;26529;51.530;11.754;2022-12-13T17:10:52;47.03;;;26.70;;
40074;SDS011;26529;51.530;11.754;2022-12-13T17:13:17;47.08;;;25.83;;
40074;SDS011;26529;51.530;11.754;2022-12-13T17:15:43;52.80;;;27.70;;
40074;SDS011;26529;51.530;11.754;2022-12-13T17:18:08;53.88;;;26.83;;